Main page
METAR-TAF:

METAR-TAF

Airports :

Tashkent, Uzbekistan

Tashkent International Airport

latitude: 41-16N, longitude: 069-16E, elevation: 489 m

Current weather observation

The report was made 34 minutes ago, at 15:00 UTC
Wind 4 kt from the East/Northeast
Temperature 6°C
Humidity 61%
Pressure 1018 hPa
Visibility: 4000 m
smoke

METAR: UTTT 231500Z 07004KT 4000 FU NSC 06/M01 Q1018 R08R/CLRD70 NOSIG

Time: 20:34 (15:34 UTC)

Forecast

The report was made 4 hours and 34 minutes ago, at 11:00 UTC
Forecast valid from 23 at 12 UTC to 24 at 12 UTC
Wind 10 kt from the East
Visibility: 7000 m
Temporary
from 23 at 18 UTC to 24 at 03 UTC
Visibility: 2000 m
mist, smoke

TAF: UTTT 231100Z 2312/2412 08010KT 7000 NSC TEMPO 2318/2403 2000 BR FU

Weather observations and forecasts of more than 4000 airports (METAR and TAF reports).

The available stations are represented by yellow and red dots on the map.

Hover mouse over dot to see the name of the station.

Then click to see weather observations and forecasts.

To change the map : click on the green buttons with a black cross to zoom in, on the green button with a dash to zoom out, or on the green arrows for adjacent maps.


METAR-TAF: